createdAt,value
2019-04-25T00:00:48.302Z,0.50
2019-04-25T00:03:22.336Z,0.30
2019-04-25T00:05:53.827Z,0.50
2019-04-25T00:08:25.033Z,0.40
2019-04-25T00:10:56.290Z,0.50
2019-04-25T00:13:27.979Z,0.30
2019-04-25T00:15:59.138Z,0.40
2019-04-25T00:18:31.877Z,0.40
2019-04-25T00:21:12.181Z,0.53
2019-04-25T00:23:45.975Z,0.50
2019-04-25T00:26:27.339Z,0.57
2019-04-25T00:28:59.947Z,0.57
2019-04-25T00:31:31.882Z,1.12
2019-04-25T00:34:03.245Z,1.10
2019-04-25T00:36:34.631Z,1.17
2019-04-25T00:39:07.715Z,0.90
2019-04-25T00:41:39.512Z,0.50
2019-04-25T00:44:12.151Z,0.70
2019-04-25T00:46:47.671Z,0.55
2019-04-25T00:49:16.899Z,0.40
2019-04-25T00:51:48.332Z,0.40
2019-04-25T00:54:19.690Z,0.50
2019-04-25T00:56:52.742Z,0.30
2019-04-25T00:59:32.040Z,0.50
2019-04-25T01:02:31.551Z,0.50
2019-04-25T01:05:04.809Z,0.47
2019-04-25T01:07:36.181Z,0.50
2019-04-25T01:10:09.334Z,0.50
2019-04-25T01:12:41.714Z,0.50
2019-04-25T01:15:14.658Z,0.80
2019-04-25T01:17:46.966Z,0.40
2019-04-25T01:20:18.412Z,0.60
2019-04-25T01:22:49.568Z,0.60
2019-04-25T01:25:20.986Z,0.47
2019-04-25T01:27:53.923Z,0.35
2019-04-25T01:30:27.660Z,0.45
2019-04-25T01:32:58.945Z,0.40
2019-04-25T01:35:43.109Z,0.40
2019-04-25T01:38:41.283Z,0.30
2019-04-25T01:41:30.630Z,0.40
2019-04-25T01:44:10.556Z,0.30
2019-04-25T01:46:44.218Z,0.40
2019-04-25T01:49:15.619Z,0.30
2019-04-25T01:51:48.823Z,0.47
2019-04-25T01:54:20.264Z,0.40
2019-04-25T01:56:51.537Z,0.40
2019-04-25T01:59:23.752Z,0.60
2019-04-25T02:01:56.790Z,0.50
2019-04-25T02:04:28.286Z,0.53
2019-04-25T02:06:59.658Z,0.53
2019-04-25T02:09:31.323Z,0.80
2019-04-25T02:12:30.832Z,0.70
2019-04-25T02:15:05.903Z,0.47
2019-04-25T02:17:36.048Z,0.65
2019-04-25T02:20:07.856Z,0.60
2019-04-25T02:22:39.545Z,0.60
2019-04-25T02:25:10.817Z,0.40
2019-04-25T02:27:42.260Z,0.40
2019-04-25T02:30:15.626Z,0.42
2019-04-25T02:32:48.315Z,0.40
2019-04-25T02:35:20.457Z,0.60
2019-04-25T02:37:52.081Z,0.33
2019-04-25T02:40:24.045Z,0.42
2019-04-25T02:42:57.330Z,0.40
2019-04-25T02:45:51.289Z,0.50
2019-04-25T02:48:48.018Z,0.57
2019-04-25T02:51:29.161Z,0.50
2019-04-25T02:54:01.802Z,0.40
2019-04-25T02:56:35.835Z,0.50
2019-04-25T02:59:09.052Z,0.50
2019-04-25T03:01:40.288Z,0.40
2019-04-25T03:04:11.690Z,0.80
2019-04-25T03:06:45.303Z,0.55
2019-04-25T03:09:16.871Z,0.50
2019-04-25T03:11:48.188Z,0.60
2019-04-25T03:14:19.504Z,1.90
2019-04-25T03:16:50.987Z,0.78
2019-04-25T03:19:40.437Z,0.78
2019-04-25T03:22:15.039Z,0.50
2019-04-25T03:24:46.983Z,0.50
2019-04-25T03:27:18.301Z,0.50
2019-04-25T03:29:49.997Z,0.60
2019-04-25T03:32:21.337Z,0.80
2019-04-25T03:34:53.133Z,0.82
2019-04-25T03:37:25.975Z,0.80
2019-04-25T03:39:58.366Z,0.70
2019-04-25T03:42:30.003Z,0.70
2019-04-25T03:45:01.765Z,0.60
2019-04-25T03:47:33.289Z,0.53
2019-04-25T03:50:06.099Z,0.45
2019-04-25T03:52:38.878Z,0.88
2019-04-25T03:55:10.536Z,0.72
2019-04-25T03:57:41.902Z,0.70
2019-04-25T04:00:14.528Z,0.82
2019-04-25T04:02:46.018Z,0.60
2019-04-25T04:05:17.362Z,0.50
2019-04-25T04:07:48.589Z,0.50
2019-04-25T04:10:21.247Z,0.95
2019-04-25T04:12:54.273Z,0.82
2019-04-25T04:15:26.041Z,0.60
2019-04-25T04:18:28.635Z,0.70
2019-04-25T04:21:17.473Z,0.70
2019-04-25T04:23:54.471Z,0.50
2019-04-25T04:26:26.811Z,0.70
2019-04-25T04:28:58.511Z,0.72
2019-04-25T04:31:31.331Z,0.85
2019-04-25T04:34:03.788Z,0.80
2019-04-25T04:36:35.640Z,0.60
2019-04-25T04:39:09.060Z,0.60
2019-04-25T04:41:41.284Z,0.53
2019-04-25T04:44:14.321Z,0.90
2019-04-25T04:46:46.418Z,0.62
2019-04-25T04:49:18.468Z,0.85
2019-04-25T04:51:49.948Z,0.60
2019-04-25T04:54:23.079Z,1.07
2019-04-25T04:56:54.413Z,0.60
2019-04-25T04:59:26.535Z,0.85
2019-04-25T05:02:24.423Z,0.60
2019-04-25T05:05:17.922Z,0.72
2019-04-25T05:07:55.844Z,1.10
2019-04-25T05:10:27.342Z,1.10
2019-04-25T05:12:58.998Z,1.12
2019-04-25T05:15:30.370Z,0.70
2019-04-25T05:18:03.929Z,1.02
2019-04-25T05:20:35.606Z,1.00
2019-04-25T05:23:08.922Z,0.70
2019-04-25T05:25:40.635Z,0.70
2019-04-25T05:28:13.131Z,0.62
2019-04-25T05:30:56.420Z,1.20
2019-04-25T05:33:27.700Z,1.10
2019-04-25T05:36:00.082Z,1.00
2019-04-25T05:38:33.170Z,0.80
2019-04-25T05:41:15.808Z,0.88
2019-04-25T05:43:48.994Z,0.90
2019-04-25T05:46:21.068Z,1.32
2019-04-25T05:48:53.770Z,0.98
2019-04-25T05:51:25.924Z,0.80
2019-04-25T05:53:57.353Z,0.90
2019-04-25T05:56:28.662Z,0.70
2019-04-25T05:59:00.185Z,0.60
2019-04-25T06:01:31.519Z,0.82
2019-04-25T06:04:03.636Z,0.85
2019-04-25T06:06:36.866Z,0.90
2019-04-25T06:09:28.085Z,0.90
2019-04-25T06:12:08.825Z,0.80
2019-04-25T06:14:40.209Z,0.90
2019-04-25T06:17:15.584Z,0.98
2019-04-25T06:19:53.389Z,1.05
2019-04-25T06:22:31.471Z,0.90
2019-04-25T06:25:12.504Z,0.80
2019-04-25T06:27:56.497Z,1.50
2019-04-25T06:30:24.898Z,0.78
2019-04-25T06:32:56.862Z,0.70
2019-04-25T06:35:28.200Z,0.80
2019-04-25T06:37:59.727Z,0.53
2019-04-25T06:40:31.311Z,0.70
2019-04-25T06:43:03.473Z,0.90
2019-04-25T06:45:55.405Z,0.72
2019-04-25T06:48:58.160Z,0.72
2019-04-25T06:51:47.356Z,1.35
2019-04-25T06:54:18.711Z,1.30
2019-04-25T06:56:50.061Z,1.65
2019-04-25T06:59:23.031Z,1.82
2019-04-25T07:01:56.191Z,1.00
2019-04-25T07:04:29.159Z,0.78
2019-04-25T07:07:10.616Z,1.02
2019-04-25T07:09:34.907Z,1.62
2019-04-25T07:12:07.057Z,0.90
2019-04-25T07:14:39.208Z,0.93
2019-04-25T07:17:10.512Z,0.98
2019-04-25T07:19:43.721Z,0.65
2019-04-25T07:22:15.957Z,0.50
2019-04-25T07:24:47.372Z,0.60
2019-04-25T07:27:34.066Z,1.05
2019-04-25T07:30:31.944Z,0.70
2019-04-25T07:33:03.817Z,0.75
2019-04-25T07:35:35.760Z,0.57
2019-04-25T07:38:07.599Z,2.08
2019-04-25T07:40:38.924Z,0.80
2019-04-25T07:43:10.545Z,0.80
2019-04-25T07:45:43.512Z,0.70
2019-04-25T07:48:14.935Z,0.60
2019-04-25T07:50:46.250Z,0.60
2019-04-25T07:53:18.143Z,0.70
2019-04-25T07:55:49.359Z,0.90
2019-04-25T07:58:20.838Z,0.70
2019-04-25T08:00:53.974Z,0.85
2019-04-25T08:03:25.350Z,0.80
2019-04-25T08:05:56.962Z,0.80
2019-04-25T08:08:28.235Z,0.90
2019-04-25T08:11:06.946Z,2.37
2019-04-25T08:13:44.637Z,0.57
2019-04-25T08:16:17.837Z,0.80
2019-04-25T08:18:51.435Z,0.98
2019-04-25T08:21:24.276Z,0.68
2019-04-25T08:23:57.230Z,0.82
2019-04-25T08:26:29.433Z,0.65
2019-04-25T08:29:00.779Z,0.60
2019-04-25T08:31:34.599Z,0.50
2019-04-25T08:34:05.322Z,0.60
2019-04-25T08:36:38.528Z,0.82
2019-04-25T08:39:11.642Z,0.68
2019-04-25T08:41:45.377Z,0.80
2019-04-25T08:44:15.888Z,0.75
2019-04-25T08:46:48.750Z,0.60
2019-04-25T08:49:39.927Z,0.50
2019-04-25T08:52:13.130Z,0.50
2019-04-25T08:55:10.098Z,1.65
2019-04-25T08:58:13.778Z,0.45
2019-04-25T09:01:09.914Z,0.60
2019-04-25T09:03:47.711Z,0.82
2019-04-25T09:06:19.185Z,0.50
2019-04-25T09:08:50.473Z,0.60
2019-04-25T09:11:22.098Z,0.70
2019-04-25T09:13:54.828Z,0.60
2019-04-25T09:16:26.054Z,0.50
2019-04-25T09:18:57.729Z,0.78
2019-04-25T09:21:29.188Z,0.93
2019-04-25T09:24:00.393Z,0.60
2019-04-25T09:26:31.979Z,0.40
2019-04-25T09:29:16.001Z,0.70
2019-04-25T09:31:37.583Z,0.40
2019-04-25T09:34:10.222Z,0.60
2019-04-25T09:36:43.582Z,0.72
2019-04-25T09:39:39.966Z,0.50
2019-04-25T09:42:14.134Z,0.60
2019-04-25T09:45:10.281Z,0.40
2019-04-25T09:47:44.392Z,0.60
2019-04-25T09:50:34.044Z,1.72
2019-04-25T09:53:05.393Z,0.75
2019-04-25T09:55:55.850Z,3.10
2019-04-25T09:58:40.082Z,0.60
2019-04-25T10:01:14.099Z,0.57
2019-04-25T10:03:45.783Z,0.70
2019-04-25T10:06:19.781Z,0.50
2019-04-25T10:08:51.130Z,0.53
2019-04-25T10:11:23.721Z,0.42
2019-04-25T10:14:06.357Z,0.60
2019-04-25T10:16:37.953Z,0.50
2019-04-25T10:19:10.391Z,0.57
2019-04-25T10:21:41.927Z,0.70
2019-04-25T10:24:13.635Z,0.50
2019-04-25T10:26:45.452Z,0.70
2019-04-25T10:29:18.070Z,0.40
2019-04-25T10:31:49.270Z,0.40
2019-04-25T10:34:20.848Z,0.70
2019-04-25T10:36:53.279Z,0.93
2019-04-25T10:39:25.436Z,0.45
2019-04-25T10:41:57.241Z,0.50
2019-04-25T10:44:29.013Z,0.40
2019-04-25T10:47:00.303Z,0.53
2019-04-25T10:49:31.688Z,0.70
2019-04-25T10:52:02.956Z,0.40
2019-04-25T10:54:35.221Z,0.50
2019-04-25T10:57:06.959Z,0.57
2019-04-25T10:59:38.264Z,0.80
2019-04-25T11:02:11.099Z,0.50
2019-04-25T11:04:48.826Z,0.65
2019-04-25T11:07:20.960Z,0.50
2019-04-25T11:09:53.926Z,0.50
2019-04-25T11:12:25.325Z,0.60
2019-04-25T11:14:56.622Z,0.50
2019-04-25T11:17:27.924Z,0.50
2019-04-25T11:19:59.548Z,0.50
2019-04-25T11:22:31.062Z,0.47
2019-04-25T11:25:02.743Z,0.60
2019-04-25T11:27:34.324Z,0.80
2019-04-25T11:30:10.753Z,0.50
2019-04-25T11:32:40.211Z,0.42
2019-04-25T11:35:11.454Z,0.70
2019-04-25T11:37:43.186Z,0.60
2019-04-25T11:40:24.313Z,0.53
2019-04-25T11:42:55.642Z,0.40
2019-04-25T11:45:27.259Z,0.50
2019-04-25T11:47:58.670Z,0.60
2019-04-25T11:50:30.102Z,0.50
2019-04-25T11:53:03.007Z,0.40
2019-04-25T11:55:34.769Z,0.50
2019-04-25T11:58:06.407Z,0.90
2019-04-25T12:00:37.756Z,0.60
2019-04-25T12:03:09.214Z,0.50
2019-04-25T12:05:40.541Z,0.60
2019-04-25T12:08:13.412Z,0.40
2019-04-25T12:10:45.797Z,0.50
2019-04-25T12:13:17.899Z,0.50
2019-04-25T12:15:49.854Z,0.53
2019-04-25T12:18:21.072Z,0.50
2019-04-25T12:20:54.861Z,0.53
2019-04-25T12:23:26.008Z,0.95
2019-04-25T12:25:57.639Z,0.55
2019-04-25T12:28:29.092Z,0.45
2019-04-25T12:31:00.705Z,0.50
2019-04-25T12:33:32.597Z,0.30
2019-04-25T12:36:04.113Z,0.60
2019-04-25T12:38:35.597Z,0.90
2019-04-25T12:41:07.675Z,0.70
2019-04-25T12:43:40.856Z,0.60
2019-04-25T12:46:21.264Z,0.60
2019-04-25T12:48:52.428Z,1.00
2019-04-25T12:51:24.309Z,0.75
2019-04-25T12:53:56.076Z,0.70
2019-04-25T12:56:27.467Z,0.88
2019-04-25T12:58:58.724Z,0.60
2019-04-25T13:01:30.723Z,0.80
2019-04-25T13:04:02.056Z,0.80
2019-04-25T13:06:33.866Z,0.60
2019-04-25T13:09:07.182Z,0.60
2019-04-25T13:11:40.127Z,0.60
2019-04-25T13:14:12.174Z,0.85
2019-04-25T13:16:44.335Z,0.70
2019-04-25T13:19:23.730Z,0.70
2019-04-25T13:21:49.699Z,0.60
2019-04-25T13:24:21.621Z,0.72
2019-04-25T13:27:06.122Z,0.90
2019-04-25T13:29:48.274Z,0.60
2019-04-25T13:32:31.135Z,0.90
2019-04-25T13:35:04.978Z,0.55
2019-04-25T13:37:36.319Z,0.70
2019-04-25T13:40:07.878Z,0.78
2019-04-25T13:42:39.387Z,0.85
2019-04-25T13:45:10.677Z,0.57
2019-04-25T13:47:41.935Z,0.60
2019-04-25T13:50:14.612Z,0.70
2019-04-25T13:52:45.971Z,0.70
2019-04-25T13:55:17.298Z,0.60
2019-04-25T13:57:48.672Z,0.75
2019-04-25T14:00:23.136Z,0.70
2019-04-25T14:02:55.056Z,0.50
2019-04-25T14:05:26.595Z,0.95
2019-04-25T14:07:58.297Z,0.75
2019-04-25T14:10:30.082Z,0.68
2019-04-25T14:13:03.420Z,0.60
2019-04-25T14:15:37.256Z,0.57
2019-04-25T14:18:24.029Z,0.88
2019-04-25T14:21:04.736Z,0.50
2019-04-25T14:23:35.869Z,0.60
2019-04-25T14:26:07.802Z,0.70
2019-04-25T14:28:39.463Z,0.62
2019-04-25T14:31:13.122Z,0.80
2019-04-25T14:33:46.402Z,0.70
2019-04-25T14:36:17.695Z,0.70
2019-04-25T14:38:48.967Z,0.90
2019-04-25T14:41:22.195Z,0.72
2019-04-25T14:43:53.616Z,0.85
2019-04-25T14:46:26.377Z,0.90
2019-04-25T14:48:58.160Z,0.80
2019-04-25T14:51:29.376Z,0.80
2019-04-25T14:54:03.453Z,0.80
2019-04-25T14:56:47.688Z,0.78
2019-04-25T14:59:21.009Z,0.90
2019-04-25T15:01:52.400Z,0.90
2019-04-25T15:04:24.079Z,1.00
2019-04-25T15:06:55.712Z,0.98
2019-04-25T15:09:26.923Z,0.60
2019-04-25T15:11:58.128Z,1.10
2019-04-25T15:14:33.529Z,1.20
2019-04-25T15:17:08.139Z,0.78
2019-04-25T15:19:41.653Z,0.85
2019-04-25T15:22:18.863Z,0.70
2019-04-25T15:24:50.297Z,0.98
2019-04-25T15:27:25.276Z,1.00
2019-04-25T15:29:57.389Z,1.17
2019-04-25T15:32:32.630Z,1.00
2019-04-25T15:35:04.659Z,1.22
2019-04-25T15:37:55.124Z,0.90
2019-04-25T15:40:34.847Z,0.80
2019-04-25T15:43:26.215Z,1.10
2019-04-25T15:46:10.792Z,1.45
2019-04-25T15:48:42.101Z,1.82
2019-04-25T15:51:13.598Z,1.20
2019-04-25T15:53:45.053Z,0.80
2019-04-25T15:56:16.739Z,1.20
2019-04-25T15:58:48.800Z,1.00
2019-04-25T16:01:20.062Z,0.90
2019-04-25T16:03:52.643Z,1.00
2019-04-25T16:06:24.066Z,1.12
2019-04-25T16:08:55.369Z,0.85
2019-04-25T16:11:26.759Z,1.20
2019-04-25T16:13:58.374Z,0.82
2019-04-25T16:16:31.132Z,1.10
2019-04-25T16:19:02.850Z,0.93
2019-04-25T16:21:35.497Z,1.10
2019-04-25T16:24:08.005Z,1.20
2019-04-25T16:26:39.316Z,1.00
2019-04-25T16:29:11.077Z,1.00
2019-04-25T16:31:42.444Z,1.20
2019-04-25T16:34:13.824Z,0.85
2019-04-25T16:36:45.356Z,1.00
2019-04-25T16:39:21.617Z,1.22
2019-04-25T16:41:52.981Z,0.95
2019-04-25T16:44:24.725Z,1.12
2019-04-25T16:46:55.910Z,1.00
2019-04-25T16:49:27.485Z,1.25
2019-04-25T16:52:00.811Z,1.02
2019-04-25T16:54:32.465Z,1.40
2019-04-25T16:57:04.432Z,1.30
2019-04-25T16:59:35.957Z,1.47
2019-04-25T17:02:07.383Z,1.30
2019-04-25T17:04:40.007Z,1.35
2019-04-25T17:07:11.623Z,1.67
2019-04-25T17:09:42.935Z,1.60
2019-04-25T17:12:15.964Z,1.50
2019-04-25T17:14:58.080Z,2.15
2019-04-25T17:17:41.123Z,2.40
2019-04-25T17:20:22.930Z,4.72
2019-04-25T17:22:54.804Z,1.60
2019-04-25T17:25:26.506Z,2.15
2019-04-25T17:27:58.286Z,8.85
2019-04-25T17:30:31.343Z,4.22
2019-04-25T17:33:18.284Z,4.50
2019-04-25T17:36:07.250Z,3.30
2019-04-25T17:38:42.902Z,2.30
2019-04-25T17:41:14.893Z,2.00
2019-04-25T17:43:46.160Z,1.75
2019-04-25T17:46:19.637Z,1.77
2019-04-25T17:48:50.987Z,1.60
2019-04-25T17:51:24.189Z,2.37
2019-04-25T17:53:56.452Z,3.10
2019-04-25T17:56:29.375Z,2.77
2019-04-25T17:59:00.829Z,4.53
2019-04-25T18:01:32.889Z,4.47
2019-04-25T18:04:07.312Z,2.75
2019-04-25T18:06:39.975Z,2.22
2019-04-25T18:09:11.764Z,2.70
2019-04-25T18:11:45.349Z,2.40
2019-04-25T18:14:17.124Z,2.05
2019-04-25T18:16:50.460Z,1.87
2019-04-25T18:19:38.801Z,3.25
2019-04-25T18:22:26.618Z,2.17
2019-04-25T18:25:20.546Z,2.10
2019-04-25T18:27:59.949Z,2.67
2019-04-25T18:30:31.595Z,2.30
2019-04-25T18:33:10.567Z,1.98
2019-04-25T18:35:43.040Z,2.70
2019-04-25T18:38:34.014Z,2.10
2019-04-25T18:41:33.199Z,2.27
2019-04-25T18:44:05.625Z,2.10
2019-04-25T18:46:42.952Z,2.27
2019-04-25T18:49:14.238Z,1.82
2019-04-25T18:51:56.518Z,2.05
2019-04-25T18:54:37.423Z,2.52
2019-04-25T18:57:13.252Z,2.15
2019-04-25T19:00:14.683Z,1.95
2019-04-25T19:03:05.215Z,1.90
2019-04-25T19:05:55.438Z,1.92
2019-04-25T19:08:26.769Z,1.90
2019-04-25T19:10:58.130Z,2.55
2019-04-25T19:13:29.555Z,6.75
2019-04-25T19:16:06.113Z,1.92
2019-04-25T19:18:37.285Z,1.77
2019-04-25T19:21:08.969Z,1.77
2019-04-25T19:23:40.467Z,1.85
2019-04-25T19:26:12.324Z,1.90
2019-04-25T19:28:44.792Z,2.50
2019-04-25T19:31:16.058Z,4.75
2019-04-25T19:33:47.597Z,3.62
2019-04-25T19:36:19.323Z,3.62
2019-04-25T19:38:50.974Z,6.40
2019-04-25T19:41:28.699Z,5.80
2019-04-25T19:44:17.681Z,4.60
2019-04-25T19:46:51.327Z,3.10
2019-04-25T19:49:23.323Z,3.37
2019-04-25T19:51:55.793Z,2.75
2019-04-25T19:54:27.351Z,3.30
2019-04-25T19:56:58.570Z,2.95
2019-04-25T19:59:29.843Z,2.30
2019-04-25T20:02:06.875Z,2.83
2019-04-25T20:04:46.821Z,2.80
2019-04-25T20:07:27.453Z,2.40
2019-04-25T20:10:23.866Z,2.77
2019-04-25T20:12:55.527Z,2.92
2019-04-25T20:15:26.809Z,2.72
2019-04-25T20:17:58.322Z,3.00
2019-04-25T20:20:29.593Z,2.95
2019-04-25T20:23:00.737Z,2.55
2019-04-25T20:25:32.058Z,2.67
2019-04-25T20:28:03.276Z,2.40
2019-04-25T20:30:35.199Z,2.20
2019-04-25T20:33:06.495Z,2.77
2019-04-25T20:35:38.063Z,2.20
2019-04-25T20:38:09.375Z,2.67
2019-04-25T20:40:41.027Z,2.30
2019-04-25T20:43:14.569Z,2.15
2019-04-25T20:45:46.929Z,2.37
2019-04-25T20:48:19.141Z,2.33
2019-04-25T20:50:50.410Z,2.27
2019-04-25T20:53:22.412Z,2.22
2019-04-25T20:55:54.953Z,2.35
2019-04-25T20:58:26.643Z,2.70
2019-04-25T21:00:59.882Z,2.40
2019-04-25T21:03:31.153Z,2.92
2019-04-25T21:06:07.998Z,2.60
2019-04-25T21:08:39.294Z,2.92
2019-04-25T21:11:10.540Z,2.60
2019-04-25T21:14:00.039Z,2.85
2019-04-25T21:16:50.544Z,2.40
2019-04-25T21:19:30.877Z,2.95
2019-04-25T21:22:02.208Z,5.92
2019-04-25T21:24:33.492Z,6.08
2019-04-25T21:27:05.105Z,6.42
2019-04-25T21:29:36.468Z,6.47
2019-04-25T21:32:08.031Z,5.62
2019-04-25T21:34:39.319Z,5.30
2019-04-25T21:37:11.231Z,5.28
2019-04-25T21:39:55.096Z,5.97
2019-04-25T21:42:48.909Z,5.92
2019-04-25T21:45:20.497Z,7.67
2019-04-25T21:47:52.368Z,6.25
2019-04-25T21:50:25.556Z,6.47
2019-04-25T21:52:56.938Z,6.03
2019-04-25T21:55:28.642Z,6.00
2019-04-25T21:58:00.085Z,6.55
2019-04-25T22:00:50.308Z,7.05
2019-04-25T22:03:23.993Z,6.65
2019-04-25T22:05:56.870Z,6.08
2019-04-25T22:08:28.239Z,5.28
2019-04-25T22:11:01.206Z,5.33
2019-04-25T22:13:32.717Z,4.65
2019-04-25T22:16:04.437Z,4.47
2019-04-25T22:18:36.178Z,5.12
2019-04-25T22:21:07.653Z,5.10
2019-04-25T22:23:39.212Z,4.97
2019-04-25T22:26:10.654Z,4.60
2019-04-25T22:28:42.241Z,4.37
2019-04-25T22:31:18.419Z,4.95
2019-04-25T22:33:59.830Z,4.83
2019-04-25T22:36:32.317Z,3.85
2019-04-25T22:39:13.078Z,4.47
2019-04-25T22:41:48.374Z,3.52
2019-04-25T22:44:21.349Z,4.17
2019-04-25T22:46:52.922Z,3.77
2019-04-25T22:49:24.150Z,3.60
2019-04-25T22:51:55.685Z,3.12
2019-04-25T22:54:28.883Z,4.15
2019-04-25T22:57:00.356Z,3.27
2019-04-25T22:59:33.178Z,3.33
2019-04-25T23:02:32.304Z,3.92
2019-04-25T23:05:34.847Z,4.22
2019-04-25T23:08:06.495Z,4.17
2019-04-25T23:10:38.577Z,3.27
2019-04-25T23:13:10.884Z,3.20
2019-04-25T23:15:42.327Z,2.85
2019-04-25T23:18:13.684Z,3.10
2019-04-25T23:20:46.318Z,2.92
2019-04-25T23:23:17.856Z,2.70
2019-04-25T23:26:00.960Z,3.80
2019-04-25T23:28:36.449Z,2.85
2019-04-25T23:31:12.596Z,2.98
2019-04-25T23:33:44.330Z,2.90
2019-04-25T23:36:15.986Z,2.92
2019-04-25T23:38:47.873Z,3.25
2019-04-25T23:41:19.451Z,2.75
2019-04-25T23:43:51.055Z,3.50
2019-04-25T23:46:22.200Z,2.20
2019-04-25T23:48:54.143Z,2.90
2019-04-25T23:51:25.733Z,3.00
2019-04-25T23:53:57.839Z,2.85
2019-04-25T23:56:29.275Z,2.85
2019-04-25T23:59:01.430Z,3.10
